sensor_id;sensor_type;location;lat;lon;timestamp;temperature;humidity
2389;DHT22;1205;47.984;7.668;2022-09-23T00:00:48;9.50;99.90
2389;DHT22;1205;47.984;7.668;2022-09-23T00:03:14;9.50;99.90
2389;DHT22;1205;47.984;7.668;2022-09-23T00:05:59;9.50;99.90
2389;DHT22;1205;47.984;7.668;2022-09-23T00:08:26;9.40;99.90
2389;DHT22;1205;47.984;7.668;2022-09-23T00:10:51;9.50;99.90
2389;DHT22;1205;47.984;7.668;2022-09-23T00:13:17;9.40;99.90
2389;DHT22;1205;47.984;7.668;2022-09-23T00:15:42;9.50;99.90
2389;DHT22;1205;47.984;7.668;2022-09-23T00:18:08;9.50;99.90
2389;DHT22;1205;47.984;7.668;2022-09-23T00:20:34;9.40;99.90
2389;DHT22;1205;47.984;7.668;2022-09-23T00:23:00;9.30;99.90
2389;DHT22;1205;47.984;7.668;2022-09-23T00:25:26;9.30;99.90
2389;DHT22;1205;47.984;7.668;2022-09-23T00:27:54;9.30;99.90
2389;DHT22;1205;47.984;7.668;2022-09-23T00:30:20;9.30;99.90
2389;DHT22;1205;47.984;7.668;2022-09-23T00:32:48;9.30;99.90
2389;DHT22;1205;47.984;7.668;2022-09-23T00:35:13;9.20;99.90
2389;DHT22;1205;47.984;7.668;2022-09-23T00:37:39;9.30;99.90
2389;DHT22;1205;47.984;7.668;2022-09-23T00:40:05;9.30;99.90
2389;DHT22;1205;47.984;7.668;2022-09-23T00:42:32;9.30;99.90
2389;DHT22;1205;47.984;7.668;2022-09-23T00:44:59;9.30;99.90
2389;DHT22;1205;47.984;7.668;2022-09-23T00:52:37;9.20;99.90
2389;DHT22;1205;47.984;7.668;2022-09-23T00:55:10;9.20;99.90
2389;DHT22;1205;47.984;7.668;2022-09-23T00:57:37;9.10;99.90
2389;DHT22;1205;47.984;7.668;2022-09-23T01:00:05;9.00;99.90
2389;DHT22;1205;47.984;7.668;2022-09-23T01:02:31;9.00;99.90
2389;DHT22;1205;47.984;7.668;2022-09-23T01:04:58;9.00;99.90
2389;DHT22;1205;47.984;7.668;2022-09-23T01:07:25;8.90;99.90
2389;DHT22;1205;47.984;7.668;2022-09-23T01:09:51;9.00;99.90
2389;DHT22;1205;47.984;7.668;2022-09-23T01:15:17;9.00;99.90
2389;DHT22;1205;47.984;7.668;2022-09-23T01:23:37;9.00;99.90
2389;DHT22;1205;47.984;7.668;2022-09-23T01:34:09;8.90;99.90
2389;DHT22;1205;47.984;7.668;2022-09-23T01:36:42;8.70;99.90
2389;DHT22;1205;47.984;7.668;2022-09-23T01:39:25;8.60;99.90
2389;DHT22;1205;47.984;7.668;2022-09-23T01:42:04;8.50;99.90
2389;DHT22;1205;47.984;7.668;2022-09-23T01:47:27;8.50;99.90
2389;DHT22;1205;47.984;7.668;2022-09-23T01:52:52;8.60;99.90
2389;DHT22;1205;47.984;7.668;2022-09-23T01:55:25;8.60;99.90
2389;DHT22;1205;47.984;7.668;2022-09-23T01:57:56;8.60;99.90
2389;DHT22;1205;47.984;7.668;2022-09-23T02:00:25;8.50;99.90
2389;DHT22;1205;47.984;7.668;2022-09-23T02:02:58;8.60;99.90
2389;DHT22;1205;47.984;7.668;2022-09-23T02:05:47;8.60;99.90
2389;DHT22;1205;47.984;7.668;2022-09-23T02:08:33;8.50;99.90
2389;DHT22;1205;47.984;7.668;2022-09-23T02:11:06;8.60;99.90
2389;DHT22;1205;47.984;7.668;2022-09-23T02:13:44;8.50;99.90
2389;DHT22;1205;47.984;7.668;2022-09-23T02:16:33;8.50;99.90
2389;DHT22;1205;47.984;7.668;2022-09-23T02:19:06;8.50;99.90
2389;DHT22;1205;47.984;7.668;2022-09-23T02:21:37;8.40;99.90
2389;DHT22;1205;47.984;7.668;2022-09-23T02:24:12;8.40;99.90
2389;DHT22;1205;47.984;7.668;2022-09-23T02:26:51;8.40;99.90
2389;DHT22;1205;47.984;7.668;2022-09-23T02:29:20;8.40;99.90
2389;DHT22;1205;47.984;7.668;2022-09-23T02:32:00;8.40;99.90
2389;DHT22;1205;47.984;7.668;2022-09-23T02:37:47;8.30;99.90
2389;DHT22;1205;47.984;7.668;2022-09-23T02:40:18;8.40;99.90
2389;DHT22;1205;47.984;7.668;2022-09-23T02:43:26;8.30;99.90
2389;DHT22;1205;47.984;7.668;2022-09-23T02:45:58;8.40;99.90
2389;DHT22;1205;47.984;7.668;2022-09-23T02:48:31;8.40;99.90
2389;DHT22;1205;47.984;7.668;2022-09-23T02:50:58;8.30;99.90
2389;DHT22;1205;47.984;7.668;2022-09-23T02:53:27;8.40;99.90
2389;DHT22;1205;47.984;7.668;2022-09-23T02:55:53;8.40;99.90
2389;DHT22;1205;47.984;7.668;2022-09-23T02:58:18;8.40;99.90
2389;DHT22;1205;47.984;7.668;2022-09-23T03:01:28;8.40;99.90
2389;DHT22;1205;47.984;7.668;2022-09-23T03:03:48;8.40;99.90
2389;DHT22;1205;47.984;7.668;2022-09-23T03:06:31;8.40;99.90
2389;DHT22;1205;47.984;7.668;2022-09-23T03:09:07;8.50;99.90
2389;DHT22;1205;47.984;7.668;2022-09-23T03:11:38;8.50;99.90
2389;DHT22;1205;47.984;7.668;2022-09-23T03:14:46;8.50;99.90
2389;DHT22;1205;47.984;7.668;2022-09-23T03:17:24;8.60;99.90
2389;DHT22;1205;47.984;7.668;2022-09-23T03:20:09;8.60;99.90
2389;DHT22;1205;47.984;7.668;2022-09-23T03:22:42;8.60;99.90
2389;DHT22;1205;47.984;7.668;2022-09-23T03:25:14;8.60;99.90
2389;DHT22;1205;47.984;7.668;2022-09-23T03:27:41;8.60;99.90
2389;DHT22;1205;47.984;7.668;2022-09-23T03:30:08;8.50;99.90
2389;DHT22;1205;47.984;7.668;2022-09-23T03:32:35;8.50;99.90
2389;DHT22;1205;47.984;7.668;2022-09-23T03:35:04;8.40;99.90
2389;DHT22;1205;47.984;7.668;2022-09-23T03:37:34;8.40;99.90
2389;DHT22;1205;47.984;7.668;2022-09-23T03:40:08;8.30;99.90
2389;DHT22;1205;47.984;7.668;2022-09-23T03:42:35;8.40;99.90
2389;DHT22;1205;47.984;7.668;2022-09-23T03:45:05;8.40;99.90
2389;DHT22;1205;47.984;7.668;2022-09-23T03:47:34;8.40;99.90
2389;DHT22;1205;47.984;7.668;2022-09-23T03:50:00;8.30;99.90
2389;DHT22;1205;47.984;7.668;2022-09-23T03:52:26;8.40;99.90
2389;DHT22;1205;47.984;7.668;2022-09-23T03:54:52;8.40;99.90
2389;DHT22;1205;47.984;7.668;2022-09-23T03:57:19;8.50;99.90
2389;DHT22;1205;47.984;7.668;2022-09-23T03:59:46;8.40;99.90
2389;DHT22;1205;47.984;7.668;2022-09-23T04:02:13;8.50;99.90
2389;DHT22;1205;47.984;7.668;2022-09-23T04:04:41;8.50;99.90
2389;DHT22;1205;47.984;7.668;2022-09-23T04:07:07;8.50;99.90
2389;DHT22;1205;47.984;7.668;2022-09-23T04:09:33;8.50;99.90
2389;DHT22;1205;47.984;7.668;2022-09-23T04:11:58;8.50;99.90
2389;DHT22;1205;47.984;7.668;2022-09-23T04:14:24;8.50;99.90
2389;DHT22;1205;47.984;7.668;2022-09-23T04:16:50;8.50;99.90
2389;DHT22;1205;47.984;7.668;2022-09-23T04:19:16;8.50;99.90
2389;DHT22;1205;47.984;7.668;2022-09-23T04:21:42;8.50;99.90
2389;DHT22;1205;47.984;7.668;2022-09-23T04:24:09;8.50;99.90
2389;DHT22;1205;47.984;7.668;2022-09-23T04:26:35;8.50;99.90
2389;DHT22;1205;47.984;7.668;2022-09-23T04:29:02;8.50;99.90
2389;DHT22;1205;47.984;7.668;2022-09-23T04:31:29;8.50;99.90
2389;DHT22;1205;47.984;7.668;2022-09-23T04:33:55;8.50;99.90
2389;DHT22;1205;47.984;7.668;2022-09-23T04:36:21;8.50;99.90
2389;DHT22;1205;47.984;7.668;2022-09-23T04:38:48;8.40;99.90
2389;DHT22;1205;47.984;7.668;2022-09-23T04:41:14;8.40;99.90
2389;DHT22;1205;47.984;7.668;2022-09-23T04:43:40;8.40;99.90
2389;DHT22;1205;47.984;7.668;2022-09-23T04:46:09;8.30;99.90
2389;DHT22;1205;47.984;7.668;2022-09-23T04:48:36;8.30;99.90
2389;DHT22;1205;47.984;7.668;2022-09-23T04:53:28;8.30;99.90
2389;DHT22;1205;47.984;7.668;2022-09-23T04:55:59;8.30;99.90
2389;DHT22;1205;47.984;7.668;2022-09-23T04:58:24;8.30;99.90
2389;DHT22;1205;47.984;7.668;2022-09-23T05:00:50;8.30;99.90
2389;DHT22;1205;47.984;7.668;2022-09-23T05:03:15;8.40;99.90
2389;DHT22;1205;47.984;7.668;2022-09-23T05:05:41;8.40;99.90
2389;DHT22;1205;47.984;7.668;2022-09-23T05:08:06;8.30;99.90
2389;DHT22;1205;47.984;7.668;2022-09-23T05:10:32;8.30;99.90
2389;DHT22;1205;47.984;7.668;2022-09-23T05:12:58;8.40;99.90
2389;DHT22;1205;47.984;7.668;2022-09-23T05:15:23;8.30;99.90
2389;DHT22;1205;47.984;7.668;2022-09-23T05:17:49;8.40;99.90
2389;DHT22;1205;47.984;7.668;2022-09-23T05:20:14;8.40;99.90
2389;DHT22;1205;47.984;7.668;2022-09-23T05:22:41;8.40;99.90
2389;DHT22;1205;47.984;7.668;2022-09-23T05:25:07;8.40;99.90
2389;DHT22;1205;47.984;7.668;2022-09-23T05:27:33;8.40;99.90
2389;DHT22;1205;47.984;7.668;2022-09-23T05:29:58;8.50;99.90
2389;DHT22;1205;47.984;7.668;2022-09-23T05:32:25;8.50;99.90
2389;DHT22;1205;47.984;7.668;2022-09-23T05:34:50;8.40;99.90
2389;DHT22;1205;47.984;7.668;2022-09-23T05:37:19;8.50;99.90
2389;DHT22;1205;47.984;7.668;2022-09-23T05:39:44;8.40;99.90
2389;DHT22;1205;47.984;7.668;2022-09-23T05:42:10;8.50;99.90
2389;DHT22;1205;47.984;7.668;2022-09-23T05:44:36;8.50;99.90
2389;DHT22;1205;47.984;7.668;2022-09-23T05:47:03;8.70;99.90
2389;DHT22;1205;47.984;7.668;2022-09-23T05:49:29;8.60;99.90
2389;DHT22;1205;47.984;7.668;2022-09-23T05:51:55;8.60;99.90
2389;DHT22;1205;47.984;7.668;2022-09-23T05:54:20;8.50;99.90
2389;DHT22;1205;47.984;7.668;2022-09-23T05:56:46;8.60;99.90
2389;DHT22;1205;47.984;7.668;2022-09-23T05:59:12;8.90;99.90
2389;DHT22;1205;47.984;7.668;2022-09-23T06:01:37;9.10;99.90
2389;DHT22;1205;47.984;7.668;2022-09-23T06:04:05;9.30;99.90
2389;DHT22;1205;47.984;7.668;2022-09-23T06:06:37;9.20;99.90
2389;DHT22;1205;47.984;7.668;2022-09-23T06:09:03;9.50;99.90
2389;DHT22;1205;47.984;7.668;2022-09-23T06:11:31;9.30;99.90
2389;DHT22;1205;47.984;7.668;2022-09-23T06:13:58;9.70;99.90
2389;DHT22;1205;47.984;7.668;2022-09-23T06:16:25;10.00;99.90
2389;DHT22;1205;47.984;7.668;2022-09-23T06:18:51;10.20;99.90
2389;DHT22;1205;47.984;7.668;2022-09-23T06:21:17;10.30;99.90
2389;DHT22;1205;47.984;7.668;2022-09-23T06:23:43;10.50;99.90
2389;DHT22;1205;47.984;7.668;2022-09-23T06:26:13;10.40;99.90
2389;DHT22;1205;47.984;7.668;2022-09-23T06:28:40;10.40;99.90
2389;DHT22;1205;47.984;7.668;2022-09-23T06:31:09;10.40;99.90
2389;DHT22;1205;47.984;7.668;2022-09-23T06:33:35;10.40;99.90
2389;DHT22;1205;47.984;7.668;2022-09-23T06:36:03;10.60;99.90
2389;DHT22;1205;47.984;7.668;2022-09-23T06:38:29;10.60;99.90
2389;DHT22;1205;47.984;7.668;2022-09-23T06:40:56;10.80;99.90
2389;DHT22;1205;47.984;7.668;2022-09-23T06:43:23;11.00;99.90
2389;DHT22;1205;47.984;7.668;2022-09-23T06:45:57;11.30;99.90
2389;DHT22;1205;47.984;7.668;2022-09-23T06:48:23;11.30;99.90
2389;DHT22;1205;47.984;7.668;2022-09-23T06:50:50;11.50;99.90
2389;DHT22;1205;47.984;7.668;2022-09-23T06:53:18;11.60;99.90
2389;DHT22;1205;47.984;7.668;2022-09-23T06:55:44;11.50;99.90
2389;DHT22;1205;47.984;7.668;2022-09-23T06:58:10;11.70;99.90
2389;DHT22;1205;47.984;7.668;2022-09-23T07:00:36;11.80;99.90
2389;DHT22;1205;47.984;7.668;2022-09-23T07:03:06;11.90;99.90
2389;DHT22;1205;47.984;7.668;2022-09-23T07:05:32;12.00;99.90
2389;DHT22;1205;47.984;7.668;2022-09-23T07:07:58;12.10;99.90
2389;DHT22;1205;47.984;7.668;2022-09-23T07:10:24;12.20;99.90
2389;DHT22;1205;47.984;7.668;2022-09-23T07:12:52;12.10;99.90
2389;DHT22;1205;47.984;7.668;2022-09-23T07:15:17;12.10;99.90
2389;DHT22;1205;47.984;7.668;2022-09-23T07:17:43;12.20;99.90
2389;DHT22;1205;47.984;7.668;2022-09-23T07:20:09;12.40;99.90
2389;DHT22;1205;47.984;7.668;2022-09-23T07:22:36;12.50;99.90
2389;DHT22;1205;47.984;7.668;2022-09-23T07:25:02;12.60;99.90
2389;DHT22;1205;47.984;7.668;2022-09-23T07:27:28;12.70;99.90
2389;DHT22;1205;47.984;7.668;2022-09-23T07:29:53;12.80;99.90
2389;DHT22;1205;47.984;7.668;2022-09-23T07:32:20;12.90;99.90
2389;DHT22;1205;47.984;7.668;2022-09-23T07:34:47;13.00;99.90
2389;DHT22;1205;47.984;7.668;2022-09-23T07:37:16;13.10;99.90
2389;DHT22;1205;47.984;7.668;2022-09-23T07:39:43;13.20;99.90
2389;DHT22;1205;47.984;7.668;2022-09-23T07:42:09;13.30;99.90
2389;DHT22;1205;47.984;7.668;2022-09-23T07:44:36;13.40;99.90
2389;DHT22;1205;47.984;7.668;2022-09-23T07:47:02;13.50;99.90
2389;DHT22;1205;47.984;7.668;2022-09-23T07:49:28;13.40;99.90
2389;DHT22;1205;47.984;7.668;2022-09-23T07:51:53;13.50;99.90
2389;DHT22;1205;47.984;7.668;2022-09-23T07:54:20;13.60;99.90
2389;DHT22;1205;47.984;7.668;2022-09-23T07:56:46;13.60;99.90
2389;DHT22;1205;47.984;7.668;2022-09-23T07:59:14;13.50;99.90
2389;DHT22;1205;47.984;7.668;2022-09-23T08:01:43;13.50;99.90
2389;DHT22;1205;47.984;7.668;2022-09-23T08:04:16;13.50;99.90
2389;DHT22;1205;47.984;7.668;2022-09-23T08:06:44;13.40;99.90
2389;DHT22;1205;47.984;7.668;2022-09-23T08:09:11;13.30;99.90
2389;DHT22;1205;47.984;7.668;2022-09-23T08:11:37;13.40;99.90
2389;DHT22;1205;47.984;7.668;2022-09-23T08:14:07;13.20;99.90
2389;DHT22;1205;47.984;7.668;2022-09-23T08:16:34;13.20;99.90
2389;DHT22;1205;47.984;7.668;2022-09-23T08:19:00;13.10;99.90
2389;DHT22;1205;47.984;7.668;2022-09-23T08:21:26;12.90;99.90
2389;DHT22;1205;47.984;7.668;2022-09-23T08:23:51;12.90;99.90
2389;DHT22;1205;47.984;7.668;2022-09-23T08:26:17;13.10;99.90
2389;DHT22;1205;47.984;7.668;2022-09-23T08:28:43;13.20;99.90
2389;DHT22;1205;47.984;7.668;2022-09-23T08:31:09;13.10;99.90
2389;DHT22;1205;47.984;7.668;2022-09-23T08:33:36;13.20;99.90
2389;DHT22;1205;47.984;7.668;2022-09-23T08:36:02;13.10;99.90
2389;DHT22;1205;47.984;7.668;2022-09-23T08:38:28;13.10;99.90
2389;DHT22;1205;47.984;7.668;2022-09-23T08:46:43;13.40;99.90
2389;DHT22;1205;47.984;7.668;2022-09-23T08:49:15;13.50;99.90
2389;DHT22;1205;47.984;7.668;2022-09-23T08:51:46;13.50;99.90
2389;DHT22;1205;47.984;7.668;2022-09-23T08:54:13;13.70;99.90
2389;DHT22;1205;47.984;7.668;2022-09-23T08:56:41;13.80;99.90
2389;DHT22;1205;47.984;7.668;2022-09-23T09:01:46;14.00;99.90
2389;DHT22;1205;47.984;7.668;2022-09-23T09:10:23;14.10;99.90
2389;DHT22;1205;47.984;7.668;2022-09-23T09:12:44;14.10;99.90
2389;DHT22;1205;47.984;7.668;2022-09-23T09:15:19;14.20;99.90
2389;DHT22;1205;47.984;7.668;2022-09-23T09:21:05;14.50;99.90
2389;DHT22;1205;47.984;7.668;2022-09-23T09:26:05;14.90;99.90
2389;DHT22;1205;47.984;7.668;2022-09-23T09:28:46;15.00;99.90
2389;DHT22;1205;47.984;7.668;2022-09-23T09:37:06;15.30;99.90
2389;DHT22;1205;47.984;7.668;2022-09-23T09:39:34;15.40;99.90
2389;DHT22;1205;47.984;7.668;2022-09-23T09:42:00;15.50;99.90
2389;DHT22;1205;47.984;7.668;2022-09-23T09:44:48;15.60;99.90
2389;DHT22;1205;47.984;7.668;2022-09-23T09:47:45;15.70;99.90
2389;DHT22;1205;47.984;7.668;2022-09-23T09:50:14;15.80;99.90
2389;DHT22;1205;47.984;7.668;2022-09-23T09:52:45;15.90;99.90
2389;DHT22;1205;47.984;7.668;2022-09-23T09:57:49;16.10;99.90
2389;DHT22;1205;47.984;7.668;2022-09-23T10:11:13;16.70;99.90
2389;DHT22;1205;47.984;7.668;2022-09-23T10:16:25;17.00;98.90
2389;DHT22;1205;47.984;7.668;2022-09-23T10:18:51;17.20;97.30
2389;DHT22;1205;47.984;7.668;2022-09-23T10:21:22;17.30;96.90
2389;DHT22;1205;47.984;7.668;2022-09-23T10:23:54;17.40;96.50
2389;DHT22;1205;47.984;7.668;2022-09-23T10:26:32;17.40;96.40
2389;DHT22;1205;47.984;7.668;2022-09-23T10:29:02;17.50;95.80
2389;DHT22;1205;47.984;7.668;2022-09-23T10:31:33;17.50;96.00
2389;DHT22;1205;47.984;7.668;2022-09-23T10:34:25;17.60;96.20
2389;DHT22;1205;47.984;7.668;2022-09-23T10:37:01;17.80;95.20
2389;DHT22;1205;47.984;7.668;2022-09-23T10:39:27;17.80;94.70
2389;DHT22;1205;47.984;7.668;2022-09-23T10:45:17;17.90;94.40
2389;DHT22;1205;47.984;7.668;2022-09-23T10:50:49;18.10;94.10
2389;DHT22;1205;47.984;7.668;2022-09-23T10:55:50;18.30;93.20
2389;DHT22;1205;47.984;7.668;2022-09-23T11:06:32;18.70;91.60
2389;DHT22;1205;47.984;7.668;2022-09-23T11:09:07;18.60;91.60
2389;DHT22;1205;47.984;7.668;2022-09-23T11:11:51;18.70;91.70
2389;DHT22;1205;47.984;7.668;2022-09-23T11:26:13;19.00;90.90
2389;DHT22;1205;47.984;7.668;2022-09-23T11:28:57;19.10;91.70
2389;DHT22;1205;47.984;7.668;2022-09-23T11:37:34;19.40;90.60
2389;DHT22;1205;47.984;7.668;2022-09-23T11:39:43;19.50;90.90
2389;DHT22;1205;47.984;7.668;2022-09-23T11:42:34;19.60;91.50
2389;DHT22;1205;47.984;7.668;2022-09-23T11:45:25;19.70;91.50
2389;DHT22;1205;47.984;7.668;2022-09-23T11:47:59;19.80;90.70
2389;DHT22;1205;47.984;7.668;2022-09-23T11:50:35;19.90;90.50
2389;DHT22;1205;47.984;7.668;2022-09-23T11:53:14;20.00;91.10
2389;DHT22;1205;47.984;7.668;2022-09-23T11:55:46;20.00;89.70
2389;DHT22;1205;47.984;7.668;2022-09-23T11:58:17;20.10;89.10
2389;DHT22;1205;47.984;7.668;2022-09-23T12:00:53;20.20;90.00
2389;DHT22;1205;47.984;7.668;2022-09-23T12:03:56;20.30;87.80
2389;DHT22;1205;47.984;7.668;2022-09-23T12:06:31;20.30;87.20
2389;DHT22;1205;47.984;7.668;2022-09-23T12:09:02;20.30;87.60
2389;DHT22;1205;47.984;7.668;2022-09-23T12:11:48;20.50;88.00
2389;DHT22;1205;47.984;7.668;2022-09-23T12:14:58;20.60;88.30
2389;DHT22;1205;47.984;7.668;2022-09-23T12:26:23;20.60;86.70
2389;DHT22;1205;47.984;7.668;2022-09-23T12:28:53;20.70;87.60
2389;DHT22;1205;47.984;7.668;2022-09-23T12:31:23;20.60;85.20
2389;DHT22;1205;47.984;7.668;2022-09-23T12:34:00;20.70;87.50
2389;DHT22;1205;47.984;7.668;2022-09-23T12:36:32;20.80;84.40
2389;DHT22;1205;47.984;7.668;2022-09-23T12:41:36;21.00;84.10
2389;DHT22;1205;47.984;7.668;2022-09-23T12:49:54;21.20;83.20
2389;DHT22;1205;47.984;7.668;2022-09-23T12:52:32;21.20;81.20
2389;DHT22;1205;47.984;7.668;2022-09-23T12:57:49;21.20;79.00
2389;DHT22;1205;47.984;7.668;2022-09-23T13:00:21;21.30;81.70
2389;DHT22;1205;47.984;7.668;2022-09-23T13:05:51;21.40;82.60
2389;DHT22;1205;47.984;7.668;2022-09-23T13:08:38;21.60;81.20
2389;DHT22;1205;47.984;7.668;2022-09-23T13:11:20;21.60;81.40
2389;DHT22;1205;47.984;7.668;2022-09-23T13:13:48;21.80;82.00
2389;DHT22;1205;47.984;7.668;2022-09-23T13:16:33;21.80;81.90
2389;DHT22;1205;47.984;7.668;2022-09-23T13:19:01;21.90;83.70
2389;DHT22;1205;47.984;7.668;2022-09-23T13:26:53;21.90;79.50
2389;DHT22;1205;47.984;7.668;2022-09-23T13:30:15;22.00;80.50
2389;DHT22;1205;47.984;7.668;2022-09-23T13:32:17;22.00;79.50
2389;DHT22;1205;47.984;7.668;2022-09-23T13:37:41;22.20;82.50
2389;DHT22;1205;47.984;7.668;2022-09-23T13:42:49;22.60;81.30
2389;DHT22;1205;47.984;7.668;2022-09-23T13:45:18;22.70;82.80
2389;DHT22;1205;47.984;7.668;2022-09-23T13:47:46;22.60;84.10
2389;DHT22;1205;47.984;7.668;2022-09-23T13:50:19;22.70;83.20
2389;DHT22;1205;47.984;7.668;2022-09-23T13:52:54;22.50;80.90
2389;DHT22;1205;47.984;7.668;2022-09-23T13:55:31;22.50;80.60
2389;DHT22;1205;47.984;7.668;2022-09-23T13:57:59;22.40;80.60
2389;DHT22;1205;47.984;7.668;2022-09-23T14:00:32;22.30;80.80
2389;DHT22;1205;47.984;7.668;2022-09-23T14:03:00;22.20;81.90
2389;DHT22;1205;47.984;7.668;2022-09-23T14:05:31;22.30;83.90
2389;DHT22;1205;47.984;7.668;2022-09-23T14:07:58;22.20;82.90
2389;DHT22;1205;47.984;7.668;2022-09-23T14:10:24;22.30;84.30
2389;DHT22;1205;47.984;7.668;2022-09-23T14:12:52;22.30;84.00
2389;DHT22;1205;47.984;7.668;2022-09-23T14:15:19;22.30;82.40
2389;DHT22;1205;47.984;7.668;2022-09-23T14:17:50;22.20;83.20
2389;DHT22;1205;47.984;7.668;2022-09-23T14:20:18;22.40;84.40
2389;DHT22;1205;47.984;7.668;2022-09-23T14:22:45;22.40;85.10
2389;DHT22;1205;47.984;7.668;2022-09-23T14:25:15;22.40;84.50
2389;DHT22;1205;47.984;7.668;2022-09-23T14:27:43;22.40;85.60
2389;DHT22;1205;47.984;7.668;2022-09-23T14:30:18;22.40;84.90
2389;DHT22;1205;47.984;7.668;2022-09-23T14:32:44;22.40;86.20
2389;DHT22;1205;47.984;7.668;2022-09-23T14:35:21;22.50;84.90
2389;DHT22;1205;47.984;7.668;2022-09-23T14:37:52;22.40;84.80
2389;DHT22;1205;47.984;7.668;2022-09-23T14:44:00;22.40;87.70
2389;DHT22;1205;47.984;7.668;2022-09-23T14:46:29;22.40;86.70
2389;DHT22;1205;47.984;7.668;2022-09-23T14:51:53;22.40;85.50
2389;DHT22;1205;47.984;7.668;2022-09-23T14:59:53;22.20;86.80
2389;DHT22;1205;47.984;7.668;2022-09-23T15:02:36;22.10;86.40
2389;DHT22;1205;47.984;7.668;2022-09-23T15:05:29;22.10;86.50
2389;DHT22;1205;47.984;7.668;2022-09-23T15:07:58;22.20;87.90
2389;DHT22;1205;47.984;7.668;2022-09-23T15:10:31;22.20;88.10
2389;DHT22;1205;47.984;7.668;2022-09-23T15:13:07;22.20;89.40
2389;DHT22;1205;47.984;7.668;2022-09-23T15:15:34;22.20;88.20
2389;DHT22;1205;47.984;7.668;2022-09-23T15:18:16;22.20;89.40
2389;DHT22;1205;47.984;7.668;2022-09-23T15:20:53;22.10;90.10
2389;DHT22;1205;47.984;7.668;2022-09-23T15:23:33;22.10;90.40
2389;DHT22;1205;47.984;7.668;2022-09-23T15:26:09;22.10;90.80
2389;DHT22;1205;47.984;7.668;2022-09-23T15:28:36;22.10;90.00
2389;DHT22;1205;47.984;7.668;2022-09-23T15:31:01;22.10;90.00
2389;DHT22;1205;47.984;7.668;2022-09-23T15:33:30;22.00;90.60
2389;DHT22;1205;47.984;7.668;2022-09-23T15:35:56;22.00;91.50
2389;DHT22;1205;47.984;7.668;2022-09-23T15:38:23;22.00;91.20
2389;DHT22;1205;47.984;7.668;2022-09-23T15:40:49;22.00;90.70
2389;DHT22;1205;47.984;7.668;2022-09-23T15:43:23;22.00;91.10
2389;DHT22;1205;47.984;7.668;2022-09-23T15:46:07;21.90;91.70
2389;DHT22;1205;47.984;7.668;2022-09-23T15:48:40;21.90;91.30
2389;DHT22;1205;47.984;7.668;2022-09-23T15:51:07;21.80;91.80
2389;DHT22;1205;47.984;7.668;2022-09-23T15:53:34;21.80;91.70
2389;DHT22;1205;47.984;7.668;2022-09-23T15:56:01;21.70;91.10
2389;DHT22;1205;47.984;7.668;2022-09-23T15:58:27;21.70;91.50
2389;DHT22;1205;47.984;7.668;2022-09-23T16:00:54;21.60;90.70
2389;DHT22;1205;47.984;7.668;2022-09-23T16:03:20;21.60;91.60
2389;DHT22;1205;47.984;7.668;2022-09-23T16:05:50;21.50;91.00
2389;DHT22;1205;47.984;7.668;2022-09-23T16:08:16;21.40;91.20
2389;DHT22;1205;47.984;7.668;2022-09-23T16:10:47;21.30;91.60
2389;DHT22;1205;47.984;7.668;2022-09-23T16:13:13;21.20;91.60
2389;DHT22;1205;47.984;7.668;2022-09-23T16:15:39;21.20;92.20
2389;DHT22;1205;47.984;7.668;2022-09-23T16:18:06;21.20;92.20
2389;DHT22;1205;47.984;7.668;2022-09-23T16:20:36;21.20;92.80
2389;DHT22;1205;47.984;7.668;2022-09-23T16:23:07;21.10;93.10
2389;DHT22;1205;47.984;7.668;2022-09-23T16:25:36;21.00;93.10
2389;DHT22;1205;47.984;7.668;2022-09-23T16:28:03;20.90;93.50
2389;DHT22;1205;47.984;7.668;2022-09-23T16:30:31;20.80;93.70
2389;DHT22;1205;47.984;7.668;2022-09-23T16:32:57;20.80;93.90
2389;DHT22;1205;47.984;7.668;2022-09-23T16:35:26;20.70;93.80
2389;DHT22;1205;47.984;7.668;2022-09-23T16:37:52;20.60;94.00
2389;DHT22;1205;47.984;7.668;2022-09-23T16:40:20;20.50;93.90
2389;DHT22;1205;47.984;7.668;2022-09-23T16:42:50;20.40;94.20
2389;DHT22;1205;47.984;7.668;2022-09-23T16:45:19;20.30;94.40
2389;DHT22;1205;47.984;7.668;2022-09-23T16:47:48;20.20;95.20
2389;DHT22;1205;47.984;7.668;2022-09-23T16:50:17;20.20;94.90
2389;DHT22;1205;47.984;7.668;2022-09-23T16:52:43;20.20;95.30
2389;DHT22;1205;47.984;7.668;2022-09-23T16:55:10;20.10;95.30
2389;DHT22;1205;47.984;7.668;2022-09-23T16:57:37;20.00;95.30
2389;DHT22;1205;47.984;7.668;2022-09-23T17:00:07;20.00;95.40
2389;DHT22;1205;47.984;7.668;2022-09-23T17:02:51;19.90;95.60
2389;DHT22;1205;47.984;7.668;2022-09-23T17:05:35;19.70;95.90
2389;DHT22;1205;47.984;7.668;2022-09-23T17:08:01;19.70;96.00
2389;DHT22;1205;47.984;7.668;2022-09-23T17:10:27;19.60;96.30
2389;DHT22;1205;47.984;7.668;2022-09-23T17:12:53;19.60;96.20
2389;DHT22;1205;47.984;7.668;2022-09-23T17:15:20;19.50;96.20
2389;DHT22;1205;47.984;7.668;2022-09-23T17:17:46;19.40;95.90
2389;DHT22;1205;47.984;7.668;2022-09-23T17:20:12;19.40;95.90
2389;DHT22;1205;47.984;7.668;2022-09-23T17:22:39;19.30;95.40
2389;DHT22;1205;47.984;7.668;2022-09-23T17:25:05;19.30;95.20
2389;DHT22;1205;47.984;7.668;2022-09-23T17:27:31;19.20;95.30
2389;DHT22;1205;47.984;7.668;2022-09-23T17:29:57;19.10;95.80
2389;DHT22;1205;47.984;7.668;2022-09-23T17:32:23;19.10;95.60
2389;DHT22;1205;47.984;7.668;2022-09-23T17:34:49;18.90;95.90
2389;DHT22;1205;47.984;7.668;2022-09-23T17:37:14;18.90;96.10
2389;DHT22;1205;47.984;7.668;2022-09-23T17:39:40;18.80;96.70
2389;DHT22;1205;47.984;7.668;2022-09-23T17:42:07;18.70;97.20
2389;DHT22;1205;47.984;7.668;2022-09-23T17:44:32;18.60;97.20
2389;DHT22;1205;47.984;7.668;2022-09-23T17:46:59;18.50;97.60
2389;DHT22;1205;47.984;7.668;2022-09-23T17:49:26;18.40;97.90
2389;DHT22;1205;47.984;7.668;2022-09-23T17:51:53;18.40;98.10
2389;DHT22;1205;47.984;7.668;2022-09-23T17:54:20;18.30;98.10
2389;DHT22;1205;47.984;7.668;2022-09-23T17:56:45;18.30;97.40
2389;DHT22;1205;47.984;7.668;2022-09-23T17:59:11;18.20;97.90
2389;DHT22;1205;47.984;7.668;2022-09-23T18:01:37;18.10;98.20
2389;DHT22;1205;47.984;7.668;2022-09-23T18:04:03;18.10;98.00
2389;DHT22;1205;47.984;7.668;2022-09-23T18:06:32;18.00;97.70
2389;DHT22;1205;47.984;7.668;2022-09-23T18:09:00;18.00;97.90
2389;DHT22;1205;47.984;7.668;2022-09-23T18:11:29;17.90;98.20
2389;DHT22;1205;47.984;7.668;2022-09-23T18:14:00;17.90;98.50
2389;DHT22;1205;47.984;7.668;2022-09-23T18:16:33;17.80;99.00
2389;DHT22;1205;47.984;7.668;2022-09-23T18:19:00;17.70;99.10
2389;DHT22;1205;47.984;7.668;2022-09-23T18:21:36;17.70;99.10
2389;DHT22;1205;47.984;7.668;2022-09-23T18:24:02;17.70;99.00
2389;DHT22;1205;47.984;7.668;2022-09-23T18:26:28;17.60;99.20
2389;DHT22;1205;47.984;7.668;2022-09-23T18:28:56;17.50;99.30
2389;DHT22;1205;47.984;7.668;2022-09-23T18:31:25;17.50;99.50
2389;DHT22;1205;47.984;7.668;2022-09-23T18:33:53;17.40;99.40
2389;DHT22;1205;47.984;7.668;2022-09-23T18:36:22;17.40;99.40
2389;DHT22;1205;47.984;7.668;2022-09-23T18:38:48;17.30;99.70
2389;DHT22;1205;47.984;7.668;2022-09-23T18:41:15;17.30;99.60
2389;DHT22;1205;47.984;7.668;2022-09-23T18:43:41;17.30;99.30
2389;DHT22;1205;47.984;7.668;2022-09-23T18:46:12;17.20;99.40
2389;DHT22;1205;47.984;7.668;2022-09-23T18:48:39;17.10;99.50
2389;DHT22;1205;47.984;7.668;2022-09-23T18:51:24;17.10;99.90
2389;DHT22;1205;47.984;7.668;2022-09-23T18:53:51;17.10;99.90
2389;DHT22;1205;47.984;7.668;2022-09-23T18:56:22;17.10;99.70
2389;DHT22;1205;47.984;7.668;2022-09-23T18:58:50;17.00;99.90
2389;DHT22;1205;47.984;7.668;2022-09-23T19:01:18;16.90;99.80